createdAt,value
2024-04-17T00:03:28.142Z,97932.09
2024-04-17T00:08:35.502Z,97931.88
2024-04-17T00:13:40.326Z,97935.34
2024-04-17T00:18:45.083Z,97934.31
2024-04-17T00:23:52.520Z,97949.19
2024-04-17T00:28:57.761Z,97937.53
2024-04-17T00:34:02.556Z,97957.44
2024-04-17T00:39:09.817Z,97956.50
2024-04-17T00:44:14.460Z,97957.91
2024-04-17T00:49:19.813Z,97958.44
2024-04-17T00:54:27.382Z,97960.50
2024-04-17T00:59:32.483Z,97971.25
2024-04-17T01:04:37.291Z,97967.56
2024-04-17T01:09:44.602Z,97974.44
2024-04-17T01:14:49.281Z,97985.16
2024-04-17T01:19:54.011Z,97991.03
2024-04-17T01:25:01.358Z,97999.13
2024-04-17T01:30:06.302Z,97989.47
2024-04-17T01:35:11.151Z,97998.63
2024-04-17T01:40:18.603Z,98005.22
2024-04-17T01:45:23.281Z,98003.97
2024-04-17T01:50:31.997Z,98009.56
2024-04-17T01:55:39.708Z,98016.69
2024-04-17T02:00:44.483Z,98027.84
2024-04-17T02:05:49.177Z,98036.44
2024-04-17T02:10:57.172Z,98036.47
2024-04-17T02:16:04.217Z,98040.50
2024-04-17T02:21:08.984Z,98040.50
2024-04-17T02:26:16.409Z,98044.84
2024-04-17T02:31:21.136Z,98041.16
2024-04-17T02:36:25.791Z,98045.41
2024-04-17T02:41:33.081Z,98048.91
2024-04-17T02:46:37.766Z,98049.75
2024-04-17T02:51:42.502Z,98061.47
2024-04-17T02:56:49.867Z,98062.97
2024-04-17T03:01:54.602Z,98069.16
2024-04-17T03:06:59.290Z,98065.63
2024-04-17T03:12:06.925Z,98069.53
2024-04-17T03:17:11.693Z,98066.75
2024-04-17T03:22:16.481Z,98055.44
2024-04-17T03:27:23.939Z,98072.47
2024-04-17T03:32:28.665Z,98078.97
2024-04-17T03:37:33.484Z,98085.44
2024-04-17T03:42:41.057Z,98088.09
2024-04-17T03:47:45.778Z,98088.28
2024-04-17T03:52:50.602Z,98095.28
2024-04-17T03:57:58.659Z,98098.53
2024-04-17T04:03:03.570Z,98110.66
2024-04-17T04:08:08.961Z,98120.63
2024-04-17T04:13:16.349Z,98121.88
2024-04-17T04:18:21.148Z,98121.75
2024-04-17T04:23:25.893Z,98125.06
2024-04-17T04:28:33.232Z,98131.84
2024-04-17T04:33:37.936Z,98139.44
2024-04-17T04:38:43.360Z,98146.94
2024-04-17T04:43:50.686Z,98161.03
2024-04-17T04:48:55.450Z,98159.81
2024-04-17T04:54:00.196Z,98161.19
2024-04-17T04:59:07.633Z,98166.50
2024-04-17T05:04:12.404Z,98177.81
2024-04-17T05:09:17.135Z,98181.22
2024-04-17T05:14:24.434Z,98179.84
2024-04-17T05:19:29.134Z,98181.94
2024-04-17T05:24:33.996Z,98184.19
2024-04-17T05:29:43.827Z,98186.69
2024-04-17T05:34:49.787Z,98197.09
2024-04-17T05:39:54.496Z,98197.38
2024-04-17T05:45:01.890Z,98197.31
2024-04-17T05:50:09.133Z,98200.28
2024-04-17T05:55:14.197Z,98203.28
2024-04-17T06:00:22.297Z,98208.94
2024-04-17T06:05:26.976Z,98210.03
2024-04-17T06:10:31.680Z,98211.38
2024-04-17T06:15:39.128Z,98220.63
2024-04-17T06:20:44.759Z,98222.50
2024-04-17T06:25:50.177Z,98224.47
2024-04-17T06:30:57.561Z,98230.69
2024-04-17T06:36:02.266Z,98223.94
2024-04-17T06:41:08.937Z,98222.69
2024-04-17T06:46:17.866Z,98226.72
2024-04-17T06:51:22.612Z,98221.19
2024-04-17T06:56:27.973Z,98234.75
2024-04-17T07:01:35.547Z,98232.78
2024-04-17T07:06:41.842Z,98230.03
2024-04-17T07:11:46.650Z,98225.41
2024-04-17T07:16:54.063Z,98233.81
2024-04-17T07:21:58.769Z,98232.91
2024-04-17T07:27:03.788Z,98239.09
2024-04-17T07:32:11.567Z,98243.25
2024-04-17T07:37:16.804Z,98240.66
2024-04-17T07:42:21.581Z,98248.56
2024-04-17T07:47:29.385Z,98254.22
2024-04-17T07:52:34.179Z,98256.38
2024-04-17T07:57:38.853Z,98253.34
2024-04-17T08:02:48.115Z,98253.66
2024-04-17T08:07:53.262Z,98254.69
2024-04-17T08:13:09.149Z,98251.34
2024-04-17T08:18:16.495Z,98243.94
2024-04-17T08:23:21.214Z,98243.09
2024-04-17T08:28:26.101Z,98244.94
2024-04-17T08:33:33.697Z,98252.38
2024-04-17T08:38:38.422Z,98247.50
2024-04-17T08:43:46.929Z,98254.47
2024-04-17T08:48:55.621Z,98254.38
2024-04-17T08:54:04.727Z,98249.78
2024-04-17T08:59:10.674Z,98256.50
2024-04-17T09:04:20.846Z,98252.78
2024-04-17T09:09:27.372Z,98261.31
2024-04-17T09:14:35.618Z,98240.97
2024-04-17T09:19:45.724Z,98249.22
2024-04-17T09:24:50.407Z,98244.59
2024-04-17T09:29:56.109Z,98257.03
2024-04-17T09:35:03.710Z,98248.56
2024-04-17T09:40:09.837Z,98255.63
2024-04-17T09:45:18.342Z,98250.78
2024-04-17T09:50:29.799Z,98251.91
2024-04-17T09:55:35.988Z,98247.97
2024-04-17T10:00:42.548Z,98253.22
2024-04-17T10:05:49.917Z,98244.75
2024-04-17T10:10:55.235Z,98251.25
2024-04-17T10:15:59.975Z,98246.91
2024-04-17T10:21:07.366Z,98239.00
2024-04-17T10:26:15.005Z,98235.78
2024-04-17T10:31:20.510Z,98234.50
2024-04-17T10:36:27.778Z,98242.53
2024-04-17T10:41:33.340Z,98228.69
2024-04-17T10:46:38.089Z,98235.50
2024-04-17T10:51:46.089Z,98242.28
2024-04-17T10:56:52.149Z,98233.38
2024-04-17T11:01:57.209Z,98223.56
2024-04-17T11:07:04.628Z,98225.16
2024-04-17T11:12:16.710Z,98226.97
2024-04-17T11:17:21.640Z,98228.94
2024-04-17T11:22:29.095Z,98223.94
2024-04-17T11:27:34.219Z,98225.88
2024-04-17T11:32:39.065Z,98226.22
2024-04-17T11:37:49.265Z,98227.81
2024-04-17T11:42:53.952Z,98214.47
2024-04-17T11:47:59.626Z,98222.75
2024-04-17T11:53:07.246Z,98217.66
2024-04-17T11:58:12.057Z,98212.06
2024-04-17T12:03:16.881Z,98219.31
2024-04-17T12:08:24.428Z,98219.84
2024-04-17T12:13:29.079Z,98224.41
2024-04-17T12:18:33.784Z,98229.31
2024-04-17T12:23:43.157Z,98218.88
2024-04-17T12:28:47.882Z,98220.59
2024-04-17T12:33:52.890Z,98234.69
2024-04-17T12:39:00.438Z,98226.28
2024-04-17T12:44:05.429Z,98228.63
2024-04-17T12:49:10.193Z,98221.16
2024-04-17T12:54:20.378Z,98227.53
2024-04-17T12:59:25.740Z,98228.94
2024-04-17T13:04:30.514Z,98227.78
2024-04-17T13:09:37.858Z,98223.03
2024-04-17T13:14:42.543Z,98229.44
2024-04-17T13:19:48.411Z,98225.41
2024-04-17T13:24:55.994Z,98222.06
2024-04-17T13:30:00.779Z,98239.84
2024-04-17T13:35:05.783Z,98243.41
2024-04-17T13:40:14.032Z,98248.78
2024-04-17T13:45:18.844Z,98267.31
2024-04-17T13:50:23.617Z,98282.97
2024-04-17T13:55:35.532Z,98290.84
2024-04-17T14:00:40.864Z,98288.22
2024-04-17T14:05:45.560Z,98290.44
2024-04-17T14:10:52.968Z,98303.81
2024-04-17T14:15:57.916Z,98293.88
2024-04-17T14:21:02.628Z,98276.19
2024-04-17T14:26:10.998Z,98272.75
2024-04-17T14:31:15.771Z,98271.00
2024-04-17T14:36:22.436Z,98265.22
2024-04-17T14:41:31.147Z,98272.75
2024-04-17T14:46:35.901Z,98263.00
2024-04-17T14:51:40.595Z,98254.16
2024-04-17T14:56:47.943Z,98257.03
2024-04-17T15:01:53.178Z,98251.34
2024-04-17T15:06:58.607Z,98251.91
2024-04-17T15:12:06.280Z,98242.34
2024-04-17T15:17:10.978Z,98257.47
2024-04-17T15:22:15.665Z,98253.19
2024-04-17T15:27:23.051Z,98248.22
2024-04-17T15:32:27.886Z,98240.47
2024-04-17T15:37:33.197Z,98238.06
2024-04-17T15:42:40.696Z,98241.22
2024-04-17T15:47:45.495Z,98244.53
2024-04-17T15:52:50.234Z,98240.56
2024-04-17T15:57:57.526Z,98243.41
2024-04-17T16:03:02.525Z,98238.66
2024-04-17T16:08:07.923Z,98241.25
2024-04-17T16:13:15.821Z,98239.63
2024-04-17T16:18:20.875Z,98244.25
2024-04-17T16:23:27.526Z,98253.19
2024-04-17T16:28:34.915Z,98243.22
2024-04-17T16:33:39.665Z,98242.72
2024-04-17T16:38:44.529Z,98240.13
2024-04-17T16:43:51.923Z,98243.47
2024-04-17T16:48:57.807Z,98246.91
2024-04-17T16:54:06.110Z,98246.03
2024-04-17T16:59:14.751Z,98251.34
2024-04-17T17:04:19.611Z,98250.69
2024-04-17T17:09:24.379Z,98260.06
2024-04-17T17:14:31.687Z,98272.44
2024-04-17T17:19:36.416Z,98285.31
2024-04-17T17:24:41.228Z,98283.16
2024-04-17T17:29:48.514Z,98288.88
2024-04-17T17:34:53.412Z,98284.94
2024-04-17T17:39:58.256Z,98293.41
2024-04-17T17:45:07.049Z,98293.34
2024-04-17T17:50:11.897Z,98303.38
2024-04-17T17:55:17.862Z,98316.50
2024-04-17T18:00:25.298Z,98314.25
2024-04-17T18:05:29.959Z,98315.75
2024-04-17T18:10:36.039Z,98319.63
2024-04-17T18:15:43.640Z,98324.25
2024-04-17T18:20:48.360Z,98316.56
2024-04-17T18:25:53.010Z,98317.19
2024-04-17T18:31:05.480Z,98325.69
2024-04-17T18:36:10.961Z,98331.56
2024-04-17T18:41:17.049Z,98338.84
2024-04-17T18:46:25.928Z,98347.97
2024-04-17T18:51:31.508Z,98357.09
2024-04-17T18:56:36.599Z,98354.44
2024-04-17T19:01:43.909Z,98358.50
2024-04-17T19:06:48.718Z,98358.88
2024-04-17T19:11:53.490Z,98363.91
2024-04-17T19:17:01.610Z,98369.16
2024-04-17T19:22:06.877Z,98371.97
2024-04-17T19:27:11.675Z,98367.91
2024-04-17T19:32:19.064Z,98374.00
2024-04-17T19:37:23.881Z,98387.50
2024-04-17T19:42:32.211Z,98385.44
2024-04-17T19:47:44.145Z,98387.09
2024-04-17T19:52:48.861Z,98396.19
2024-04-17T19:57:53.545Z,98392.38
2024-04-17T20:03:00.946Z,98413.16
2024-04-17T20:08:06.364Z,98409.91
2024-04-17T20:13:12.197Z,98419.06
2024-04-17T20:18:21.025Z,98409.16
2024-04-17T20:23:25.815Z,98423.13
2024-04-17T20:28:30.552Z,98427.72
2024-04-17T20:33:40.495Z,98431.16
2024-04-17T20:38:45.779Z,98427.72
2024-04-17T20:43:50.468Z,98429.47
2024-04-17T20:48:57.864Z,98430.28
2024-04-17T20:54:02.657Z,98429.69
2024-04-17T20:59:09.450Z,98435.94
2024-04-17T21:04:16.826Z,98433.16
2024-04-17T21:09:21.683Z,98438.50
2024-04-17T21:14:26.419Z,98444.53
2024-04-17T21:19:33.948Z,98447.31
2024-04-17T21:24:38.765Z,98442.34
2024-04-17T21:29:43.562Z,98444.44
2024-04-17T21:34:50.837Z,98447.75
2024-04-17T21:39:57.304Z,98458.63
2024-04-17T21:45:03.995Z,98469.50
2024-04-17T21:50:11.542Z,98469.09
2024-04-17T21:55:16.246Z,98474.66
2024-04-17T22:00:20.965Z,98474.47
2024-04-17T22:05:28.718Z,98476.84
2024-04-17T22:10:33.394Z,98484.53
2024-04-17T22:15:38.064Z,98481.72
2024-04-17T22:20:45.438Z,98482.47
2024-04-17T22:25:50.781Z,98480.75
2024-04-17T22:30:55.558Z,98485.22
2024-04-17T22:36:02.882Z,98491.81
2024-04-17T22:41:07.855Z,98492.72
2024-04-17T22:46:12.578Z,98498.44
2024-04-17T22:51:19.878Z,98502.88
2024-04-17T22:56:24.561Z,98505.84
2024-04-17T23:01:29.251Z,98508.56
2024-04-17T23:06:36.861Z,98509.19
2024-04-17T23:11:41.685Z,98511.72
2024-04-17T23:16:46.458Z,98514.50
2024-04-17T23:21:53.794Z,98510.81
2024-04-17T23:26:58.478Z,98510.06
2024-04-17T23:32:03.144Z,98509.69
2024-04-17T23:37:10.425Z,98499.84
2024-04-17T23:42:15.125Z,98511.13
2024-04-17T23:47:19.866Z,98513.94
2024-04-17T23:52:27.203Z,98500.28
2024-04-17T23:57:31.979Z,98511.91
